Shaw, Louisiana
Current Conditions -  °F | °C
As of 12:35 AM on Monday 22 Dec 2014 (Local Time) from KHEZ Reporting Station
Broken Clouds Broken Clouds  
Wind Chill: 52°   Ceiling: 900
Heat Index: 52°   Visibility: 10mi
Dew Point: 48°   Wind: 5mph
Humidity: 88%   Direction: 120°ESE
Pressure: 29.89"   Gusts: NA
Location:  31.5712°N, 91.5148°W
Report Text: KHEZ 220635Z AUTO 12004KT 10SM BKN009 BKN085 11/09 A2989 RMK AO1
Loading
Personal Weather Stations






























Interactive Weather Map New forecast layout! Learn more

10-Day Weather Forecast

Advertisements
Track Severe Weather on mobile